createdAt,value
2022-10-11T00:00:48.229Z,23.20
2022-10-11T00:02:56.708Z,23.20
2022-10-11T00:05:03.684Z,23.20
2022-10-11T00:07:10.815Z,23.30
2022-10-11T00:09:17.791Z,23.30
2022-10-11T00:11:24.973Z,23.30
2022-10-11T00:13:31.853Z,23.40
2022-10-11T00:15:38.825Z,23.40
2022-10-11T00:17:46.110Z,23.50
2022-10-11T00:19:54.674Z,23.50
2022-10-11T00:22:01.904Z,23.60
2022-10-11T00:24:09.343Z,23.60
2022-10-11T00:26:16.472Z,23.60
2022-10-11T00:28:23.325Z,23.60
2022-10-11T00:30:30.427Z,23.70
2022-10-11T00:32:37.817Z,23.70
2022-10-11T00:34:45.098Z,23.70
2022-10-11T00:36:53.712Z,23.80
2022-10-11T00:39:02.024Z,23.80
2022-10-11T00:41:09.253Z,23.80
2022-10-11T00:43:19.764Z,23.80
2022-10-11T00:46:05.242Z,23.90
2022-10-11T00:48:23.795Z,24.00
2022-10-11T00:50:34.097Z,24.00
2022-10-11T00:52:46.865Z,24.00
2022-10-11T00:54:56.857Z,24.10
2022-10-11T00:57:06.648Z,24.10
2022-10-11T00:59:18.591Z,24.20
2022-10-11T01:01:24.784Z,24.20
2022-10-11T01:03:34.185Z,24.20
2022-10-11T01:05:43.056Z,24.20
2022-10-11T01:07:53.004Z,24.30
2022-10-11T01:09:59.977Z,24.30
2022-10-11T01:12:14.942Z,24.40
2022-10-11T01:14:56.735Z,24.40
2022-10-11T01:17:11.085Z,24.50
2022-10-11T01:19:36.548Z,24.50
2022-10-11T01:21:50.689Z,24.60
2022-10-11T01:24:27.158Z,24.70
2022-10-11T01:27:07.673Z,24.70
2022-10-11T01:29:28.932Z,24.80
2022-10-11T01:31:43.846Z,24.80
2022-10-11T01:33:56.146Z,24.80
2022-10-11T01:36:12.646Z,24.80
2022-10-11T01:38:26.384Z,24.90
2022-10-11T01:40:37.813Z,25.00
2022-10-11T01:42:46.174Z,25.00
2022-10-11T01:44:55.145Z,25.00
2022-10-11T01:47:03.761Z,25.10
2022-10-11T01:49:11.198Z,25.10
2022-10-11T01:51:18.073Z,25.20
2022-10-11T01:54:00.941Z,25.20
2022-10-11T01:56:20.516Z,25.20
2022-10-11T01:58:42.602Z,25.20
2022-10-11T02:00:57.510Z,25.20
2022-10-11T02:03:23.020Z,25.20
2022-10-11T02:05:38.705Z,25.30
2022-10-11T02:07:48.901Z,25.30
2022-10-11T02:10:00.691Z,25.40
2022-10-11T02:12:12.689Z,25.40
2022-10-11T02:14:23.660Z,25.40
2022-10-11T02:16:34.422Z,25.40
2022-10-11T02:18:48.668Z,25.50
2022-10-11T02:20:56.931Z,25.50
2022-10-11T02:23:08.870Z,25.50
2022-10-11T02:25:20.403Z,25.60
2022-10-11T02:27:31.169Z,25.60
2022-10-11T02:29:42.857Z,25.80
2022-10-11T02:31:51.624Z,25.80
2022-10-11T02:34:03.568Z,25.80
2022-10-11T02:36:16.228Z,25.90
2022-10-11T02:38:26.686Z,26.00
2022-10-11T02:40:36.683Z,26.00
2022-10-11T02:42:48.268Z,26.10
2022-10-11T02:45:00.826Z,26.10
2022-10-11T02:47:08.418Z,26.20
2022-10-11T02:49:17.903Z,26.10
2022-10-11T02:51:24.829Z,26.10
2022-10-11T02:53:32.062Z,26.20
2022-10-11T02:55:39.038Z,26.30
2022-10-11T02:57:45.760Z,26.30
2022-10-11T02:59:52.738Z,26.40
2022-10-11T03:02:00.309Z,26.50
2022-10-11T03:04:07.201Z,26.50
2022-10-11T03:06:16.074Z,26.60
2022-10-11T03:08:23.254Z,26.60
2022-10-11T03:10:30.591Z,26.60
2022-10-11T03:12:37.568Z,26.60
2022-10-11T03:14:44.598Z,26.70
2022-10-11T03:16:51.658Z,26.80
2022-10-11T03:18:58.755Z,26.90
2022-10-11T03:21:05.678Z,27.00
2022-10-11T03:23:15.063Z,27.00
2022-10-11T03:25:22.193Z,27.00
2022-10-11T03:27:29.733Z,27.10
2022-10-11T03:29:36.764Z,27.20
2022-10-11T03:31:43.736Z,27.20
2022-10-11T03:33:50.714Z,27.30
2022-10-11T03:35:57.844Z,27.30
2022-10-11T03:38:04.822Z,27.40
2022-10-11T03:40:15.130Z,27.50
2022-10-11T03:42:22.003Z,27.60
2022-10-11T03:44:29.591Z,27.70
2022-10-11T03:46:36.978Z,27.70
2022-10-11T03:48:43.954Z,27.80
2022-10-11T03:50:51.549Z,27.80
2022-10-11T03:52:58.830Z,27.80
2022-10-11T03:55:05.909Z,27.70
2022-10-11T03:57:14.832Z,27.70
2022-10-11T03:59:21.708Z,27.80
2022-10-11T04:01:29.021Z,27.80
2022-10-11T04:03:35.916Z,27.80
2022-10-11T04:05:43.253Z,27.80
2022-10-11T04:07:50.484Z,27.90
2022-10-11T04:09:57.717Z,28.00
2022-10-11T04:12:04.797Z,28.10
2022-10-11T04:14:13.565Z,28.20
2022-10-11T04:16:20.236Z,28.40
2022-10-11T04:18:27.673Z,28.50
2022-10-11T04:20:34.649Z,28.50
2022-10-11T04:22:41.831Z,28.50
2022-10-11T04:24:48.808Z,28.40
2022-10-11T04:26:55.683Z,28.40
2022-10-11T04:29:02.505Z,28.30
2022-10-11T04:31:11.119Z,28.30
2022-10-11T04:33:17.840Z,28.40
2022-10-11T04:35:24.818Z,28.30
2022-10-11T04:37:31.593Z,28.20
2022-10-11T04:39:39.182Z,28.00
2022-10-11T04:41:46.055Z,28.10
2022-10-11T04:43:53.032Z,28.30
2022-10-11T04:45:59.863Z,28.40
2022-10-11T04:48:09.033Z,28.50
2022-10-11T04:50:15.907Z,28.50
2022-10-11T04:52:25.677Z,28.50
2022-10-11T04:54:32.985Z,28.50
2022-10-11T04:56:40.166Z,28.40
2022-10-11T04:58:49.039Z,28.40
2022-10-11T05:00:55.861Z,28.40
2022-10-11T05:03:02.788Z,28.50
2022-10-11T05:05:12.476Z,28.40
2022-10-11T05:07:19.403Z,28.40
2022-10-11T05:09:26.330Z,28.30
2022-10-11T05:11:33.320Z,28.20
2022-10-11T05:13:40.845Z,28.10
2022-10-11T05:15:47.822Z,28.20
2022-10-11T05:17:54.748Z,28.00
2022-10-11T05:20:01.576Z,28.00
2022-10-11T05:22:09.982Z,27.90
2022-10-11T05:24:16.754Z,27.90
2022-10-11T05:26:24.653Z,28.00
2022-10-11T05:28:32.297Z,28.10
2022-10-11T05:30:39.271Z,28.20
2022-10-11T05:32:46.609Z,28.40
2022-10-11T05:34:53.480Z,28.60
2022-10-11T05:37:00.612Z,28.80
2022-10-11T05:39:09.329Z,28.90
2022-10-11T05:41:17.995Z,29.00
2022-10-11T05:43:24.766Z,29.10
2022-10-11T05:45:33.280Z,29.20
2022-10-11T05:47:40.205Z,29.20
2022-10-11T05:49:47.133Z,29.20
2022-10-11T05:51:54.313Z,29.10
2022-10-11T05:54:01.392Z,29.10
2022-10-11T05:56:22.502Z,28.90
2022-10-11T05:58:29.631Z,28.70
2022-10-11T06:00:39.528Z,28.70
2022-10-11T06:02:46.246Z,28.60
2022-10-11T06:04:53.582Z,28.60
2022-10-11T06:07:00.558Z,28.50
2022-10-11T06:09:07.842Z,28.50
2022-10-11T06:11:18.968Z,28.70
2022-10-11T06:13:26.506Z,28.80
2022-10-11T06:15:33.382Z,29.00
2022-10-11T06:17:40.512Z,29.20
2022-10-11T06:19:47.181Z,29.40
2022-10-11T06:21:54.569Z,29.40
2022-10-11T06:24:03.405Z,29.50
2022-10-11T06:26:11.952Z,29.40
2022-10-11T06:28:20.598Z,29.50
2022-10-11T06:30:27.434Z,29.50
2022-10-11T06:32:34.932Z,29.60
2022-10-11T06:34:42.112Z,29.60
2022-10-11T06:36:48.987Z,29.70
2022-10-11T06:38:56.731Z,29.70
2022-10-11T06:41:14.052Z,29.70
2022-10-11T06:43:22.971Z,29.80
2022-10-11T06:45:29.796Z,29.70
2022-10-11T06:47:37.183Z,29.70
2022-10-11T06:49:44.364Z,29.70
2022-10-11T06:51:51.709Z,29.70
2022-10-11T06:54:00.672Z,29.70
2022-10-11T06:56:08.673Z,29.70
2022-10-11T06:58:16.171Z,29.70
2022-10-11T07:00:24.828Z,29.70
2022-10-11T07:02:31.660Z,29.60
2022-10-11T07:04:38.679Z,29.40
2022-10-11T07:06:45.862Z,29.30
2022-10-11T07:08:53.094Z,29.30
2022-10-11T07:11:04.372Z,29.30
2022-10-11T07:13:17.003Z,29.30
2022-10-11T07:15:26.265Z,29.40
2022-10-11T07:17:33.187Z,29.50
2022-10-11T07:19:40.223Z,29.50
2022-10-11T07:21:47.610Z,29.60
2022-10-11T07:23:55.104Z,29.50
2022-10-11T07:26:03.653Z,29.50
2022-10-11T07:28:10.770Z,29.40
2022-10-11T07:30:17.916Z,29.30
2022-10-11T07:32:26.888Z,29.20
2022-10-11T07:34:33.976Z,29.20
2022-10-11T07:36:41.356Z,29.30
2022-10-11T07:38:51.152Z,29.30
2022-10-11T07:40:58.842Z,29.40
2022-10-11T07:43:08.234Z,29.40
2022-10-11T07:45:15.817Z,29.40
2022-10-11T07:49:44.825Z,29.40
2022-10-11T07:51:51.953Z,29.30
2022-10-11T07:54:03.377Z,29.30
2022-10-11T07:56:14.920Z,29.10
2022-10-11T07:58:21.894Z,29.00
2022-10-11T08:00:29.204Z,28.90
2022-10-11T08:02:36.572Z,28.90
2022-10-11T08:04:45.334Z,28.90
2022-10-11T08:06:53.437Z,28.90
2022-10-11T08:09:02.461Z,28.90
2022-10-11T08:11:09.695Z,28.80
2022-10-11T08:13:16.672Z,28.80
2022-10-11T08:15:24.262Z,28.80
2022-10-11T08:17:32.522Z,28.90
2022-10-11T08:19:39.548Z,28.90
2022-10-11T08:21:48.265Z,28.90
2022-10-11T08:23:55.260Z,28.90
2022-10-11T08:26:02.431Z,28.90
2022-10-11T08:28:10.713Z,28.90
2022-10-11T08:30:18.024Z,28.90
2022-10-11T08:32:25.042Z,28.90
2022-10-11T08:34:31.917Z,29.00
2022-10-11T08:36:39.764Z,29.00
2022-10-11T08:38:49.713Z,29.00
2022-10-11T08:40:58.890Z,29.00
2022-10-11T08:43:09.654Z,29.00
2022-10-11T08:45:30.507Z,29.00
2022-10-11T08:47:42.040Z,29.00
2022-10-11T08:49:49.026Z,28.90
2022-10-11T08:52:03.367Z,28.90
2022-10-11T08:54:19.511Z,28.90
2022-10-11T08:56:29.457Z,28.90
2022-10-11T08:58:42.730Z,28.90
2022-10-11T09:00:52.369Z,28.90
2022-10-11T09:03:08.880Z,28.90
2022-10-11T09:05:20.044Z,28.90
2022-10-11T09:07:42.586Z,28.90
2022-10-11T09:10:05.743Z,28.80
2022-10-11T09:12:21.737Z,28.90
2022-10-11T09:14:59.017Z,28.80
2022-10-11T09:17:12.701Z,28.80
2022-10-11T09:19:44.817Z,28.80
2022-10-11T09:21:59.320Z,28.70
2022-10-11T09:24:40.152Z,28.70
2022-10-11T09:26:57.358Z,28.70
2022-10-11T09:29:13.859Z,28.70
2022-10-11T09:31:20.681Z,28.70
2022-10-11T09:33:36.414Z,28.70
2022-10-11T09:35:46.311Z,28.70
2022-10-11T09:38:00.760Z,28.80
2022-10-11T09:40:20.285Z,28.70
2022-10-11T09:42:29.050Z,28.70
2022-10-11T09:44:39.458Z,28.70
2022-10-11T09:46:47.766Z,28.60
2022-10-11T09:48:57.664Z,28.60
2022-10-11T09:51:10.269Z,28.60
2022-10-11T09:53:17.354Z,28.60
2022-10-11T09:55:39.839Z,28.60
2022-10-11T09:57:58.234Z,28.60
2022-10-11T10:00:09.669Z,28.60
2022-10-11T10:02:24.886Z,28.60
2022-10-11T10:04:31.760Z,28.60
2022-10-11T10:06:39.660Z,28.60
2022-10-11T10:08:48.324Z,28.60
2022-10-11T10:11:03.901Z,28.50
2022-10-11T10:13:24.501Z,28.50
2022-10-11T10:15:34.700Z,28.50
2022-10-11T10:17:42.447Z,28.50
2022-10-11T10:19:53.878Z,28.40
2022-10-11T10:22:01.060Z,28.40
2022-10-11T10:24:11.877Z,28.40
2022-10-11T10:26:22.488Z,28.40
2022-10-11T10:28:31.882Z,28.30
2022-10-11T10:30:38.798Z,28.30
2022-10-11T10:32:52.072Z,28.20
2022-10-11T10:35:05.959Z,28.20
2022-10-11T10:37:30.248Z,28.20
2022-10-11T10:39:43.832Z,28.10
2022-10-11T10:41:51.568Z,28.10
2022-10-11T10:44:02.590Z,28.10
2022-10-11T10:46:36.913Z,28.10
2022-10-11T10:51:27.470Z,28.00
2022-10-11T10:53:40.695Z,27.90
2022-10-11T10:55:50.538Z,27.90
2022-10-11T10:58:18.883Z,28.00
2022-10-11T11:00:28.197Z,27.90
2022-10-11T11:02:43.120Z,27.80
2022-10-11T11:04:54.181Z,27.80
2022-10-11T11:07:07.407Z,27.80
2022-10-11T11:09:27.900Z,27.80
2022-10-11T11:11:50.032Z,27.70
2022-10-11T11:14:03.459Z,27.70
2022-10-11T11:16:21.803Z,27.60
2022-10-11T11:18:37.483Z,27.60
2022-10-11T11:20:55.366Z,27.60
2022-10-11T11:23:11.297Z,27.50
2022-10-11T11:25:29.939Z,27.50
2022-10-11T11:27:54.032Z,27.50
2022-10-11T11:30:07.769Z,27.40
2022-10-11T11:32:26.622Z,27.40
2022-10-11T11:34:39.846Z,27.40
2022-10-11T11:36:50.151Z,27.40
2022-10-11T11:39:04.857Z,27.30
2022-10-11T11:41:16.596Z,27.30
2022-10-11T11:43:26.938Z,27.30
2022-10-11T11:45:40.382Z,27.20
2022-10-11T11:47:55.599Z,27.20
2022-10-11T11:50:05.114Z,27.20
2022-10-11T11:52:17.387Z,27.10
2022-10-11T11:54:38.906Z,27.10
2022-10-11T11:56:51.507Z,27.00
2022-10-11T11:59:04.075Z,27.00
2022-10-11T12:01:27.608Z,27.00
2022-10-11T12:03:44.139Z,26.90
2022-10-11T12:06:26.090Z,26.80
2022-10-11T12:08:36.697Z,26.80
2022-10-11T12:10:58.881Z,26.70
2022-10-11T12:13:22.189Z,26.70
2022-10-11T12:15:30.241Z,26.70
2022-10-11T12:17:37.517Z,26.60
2022-10-11T12:20:01.854Z,26.60
2022-10-11T12:22:39.557Z,26.50
2022-10-11T12:24:57.951Z,26.50
2022-10-11T12:27:42.305Z,26.40
2022-10-11T12:29:53.477Z,26.40
2022-10-11T12:32:35.432Z,26.40
2022-10-11T12:34:46.090Z,26.40
2022-10-11T12:36:53.892Z,26.40
2022-10-11T12:39:34.296Z,26.50
2022-10-11T12:41:54.635Z,26.50
2022-10-11T12:44:24.550Z,26.50
2022-10-11T12:47:03.825Z,26.50
2022-10-11T12:49:40.955Z,26.40
2022-10-11T12:52:00.130Z,26.40
2022-10-11T12:54:36.119Z,26.30
2022-10-11T12:56:51.869Z,26.30
2022-10-11T12:59:07.243Z,26.20
2022-10-11T13:01:25.121Z,26.20
2022-10-11T13:03:33.896Z,26.20
2022-10-11T13:05:52.456Z,26.20
2022-10-11T13:08:06.180Z,26.20
2022-10-11T13:10:18.581Z,26.20
2022-10-11T13:12:26.991Z,26.20
2022-10-11T13:14:38.066Z,26.20
2022-10-11T13:16:59.224Z,26.20
2022-10-11T13:19:09.697Z,26.20
2022-10-11T13:21:23.200Z,26.10
2022-10-11T13:23:39.868Z,26.10
2022-10-11T13:25:47.151Z,26.00
2022-10-11T13:27:56.587Z,26.10
2022-10-11T13:30:05.048Z,26.10
2022-10-11T13:32:17.351Z,26.00
2022-10-11T13:34:26.119Z,26.10
2022-10-11T13:36:33.403Z,26.00
2022-10-11T13:38:42.426Z,26.00
2022-10-11T13:40:51.159Z,26.00
2022-10-11T13:42:58.792Z,26.00
2022-10-11T13:45:08.016Z,25.90
2022-10-11T13:47:17.143Z,26.00
2022-10-11T13:49:38.507Z,26.00
2022-10-11T13:51:45.742Z,25.90
2022-10-11T13:54:05.620Z,25.90
2022-10-11T13:56:13.575Z,25.90
2022-10-11T13:58:28.892Z,25.90
2022-10-11T14:00:39.248Z,25.90
2022-10-11T14:02:52.825Z,25.90
2022-10-11T14:05:00.165Z,25.90
2022-10-11T14:07:10.361Z,25.90
2022-10-11T14:09:29.888Z,25.90
2022-10-11T14:11:39.424Z,25.90
2022-10-11T14:13:47.120Z,25.90
2022-10-11T14:16:04.013Z,26.00
2022-10-11T14:18:35.173Z,26.00
2022-10-11T14:20:43.530Z,26.00
2022-10-11T14:22:50.666Z,26.00
2022-10-11T14:24:59.277Z,26.00
2022-10-11T14:27:09.326Z,26.00
2022-10-11T14:29:24.096Z,26.10
2022-10-11T14:31:31.421Z,26.10
2022-10-11T14:33:38.451Z,26.10
2022-10-11T14:35:45.737Z,26.10
2022-10-11T14:37:53.271Z,26.10
2022-10-11T14:40:02.399Z,26.10
2022-10-11T14:42:09.275Z,26.10
2022-10-11T14:44:17.889Z,26.10
2022-10-11T14:46:28.096Z,26.20
2022-10-11T14:48:54.504Z,26.10
2022-10-11T14:51:04.368Z,26.10
2022-10-11T14:53:13.496Z,26.10
2022-10-11T14:55:22.522Z,26.10
2022-10-11T14:57:29.293Z,26.10
2022-10-11T14:59:37.616Z,26.00
2022-10-11T15:01:44.688Z,26.00
2022-10-11T15:03:51.657Z,26.00
2022-10-11T15:05:59.006Z,26.00
2022-10-11T15:08:10.628Z,25.90
2022-10-11T15:10:39.159Z,25.90
2022-10-11T15:12:46.139Z,26.00
2022-10-11T15:14:54.044Z,25.90
2022-10-11T15:17:00.961Z,25.90
2022-10-11T15:19:07.939Z,25.90
2022-10-11T15:21:27.782Z,25.90
2022-10-11T15:23:34.742Z,26.00
2022-10-11T15:25:44.793Z,25.90
2022-10-11T15:27:51.870Z,25.90
2022-10-11T15:29:58.644Z,25.90
2022-10-11T15:32:05.620Z,25.90
2022-10-11T15:34:12.391Z,25.80
2022-10-11T15:36:20.852Z,25.80
2022-10-11T15:38:28.904Z,25.80
2022-10-11T15:40:37.418Z,25.80
2022-10-11T15:42:45.995Z,25.70
2022-10-11T15:44:53.419Z,25.60
2022-10-11T15:47:00.196Z,25.50
2022-10-11T15:49:14.079Z,25.40
2022-10-11T15:51:21.161Z,25.40
2022-10-11T15:53:32.231Z,25.30
2022-10-11T15:55:41.410Z,25.30
2022-10-11T15:57:49.924Z,25.30
2022-10-11T15:59:56.798Z,25.30
2022-10-11T16:02:03.897Z,25.30
2022-10-11T16:04:10.804Z,25.30
2022-10-11T16:06:18.191Z,25.30
2022-10-11T16:08:25.067Z,25.30
2022-10-11T16:10:32.247Z,25.30
2022-10-11T16:12:39.325Z,25.30
2022-10-11T16:14:48.000Z,25.20
2022-10-11T16:16:54.865Z,25.10
2022-10-11T16:19:01.846Z,25.10
2022-10-11T16:21:11.228Z,25.10
2022-10-11T16:23:18.618Z,25.10
2022-10-11T16:25:26.409Z,25.10
2022-10-11T16:27:33.234Z,25.10
2022-10-11T16:29:40.106Z,25.00
2022-10-11T16:31:48.772Z,25.00
2022-10-11T16:33:56.209Z,25.00
2022-10-11T16:36:25.358Z,25.00
2022-10-11T16:38:35.515Z,25.00
2022-10-11T16:40:45.606Z,24.90
2022-10-11T16:43:07.648Z,24.90
2022-10-11T16:45:15.333Z,24.90
2022-10-11T16:47:23.986Z,25.00
2022-10-11T16:49:32.562Z,24.90
2022-10-11T16:51:39.435Z,25.00
2022-10-11T16:53:46.207Z,25.00
2022-10-11T16:55:53.287Z,25.10
2022-10-11T16:58:00.672Z,25.10
2022-10-11T17:00:09.647Z,25.20
2022-10-11T17:02:20.309Z,25.20
2022-10-11T17:04:28.874Z,25.30
2022-10-11T17:06:36.362Z,25.30
2022-10-11T17:08:43.288Z,25.30
2022-10-11T17:10:57.876Z,25.30
2022-10-11T17:13:04.820Z,25.30
2022-10-11T17:15:14.922Z,25.30
2022-10-11T17:17:22.153Z,25.30
2022-10-11T17:19:30.665Z,25.30
2022-10-11T17:21:37.488Z,25.30
2022-10-11T17:23:44.772Z,25.30
2022-10-11T17:25:51.595Z,25.30
2022-10-11T17:28:00.058Z,25.30
2022-10-11T17:30:07.239Z,25.30
2022-10-11T17:32:14.728Z,25.30
2022-10-11T17:34:21.909Z,25.30
2022-10-11T17:36:35.133Z,25.20
2022-10-11T17:38:45.130Z,25.30
2022-10-11T17:41:01.221Z,25.20
2022-10-11T17:43:08.045Z,25.20
2022-10-11T17:45:19.781Z,25.20
2022-10-11T17:47:27.680Z,25.20
2022-10-11T17:49:37.064Z,25.20
2022-10-11T17:51:46.401Z,25.20
2022-10-11T17:53:53.630Z,25.10
2022-10-11T17:56:00.657Z,25.10
2022-10-11T17:58:07.326Z,25.10
2022-10-11T18:00:15.686Z,25.10
2022-10-11T18:02:22.817Z,25.10
2022-10-11T18:04:31.072Z,25.10
2022-10-11T18:06:44.194Z,25.10
2022-10-11T18:08:53.272Z,25.10
2022-10-11T18:11:00.093Z,25.00
2022-10-11T18:13:11.980Z,25.00
2022-10-11T18:15:21.522Z,25.10
2022-10-11T18:17:34.028Z,25.00
2022-10-11T18:19:41.212Z,25.00
2022-10-11T18:21:48.698Z,25.00
2022-10-11T18:23:57.367Z,25.00
2022-10-11T18:26:12.902Z,24.90
2022-10-11T18:28:20.248Z,24.90
2022-10-11T18:30:27.256Z,24.90
2022-10-11T18:32:34.386Z,24.80
2022-10-11T18:34:41.311Z,24.80
2022-10-11T18:36:48.495Z,24.80
2022-10-11T18:38:59.975Z,24.70
2022-10-11T18:41:10.640Z,24.70
2022-10-11T18:43:17.668Z,24.70
2022-10-11T18:45:24.644Z,24.70
2022-10-11T18:47:31.674Z,24.60
2022-10-11T18:49:38.649Z,24.60
2022-10-11T18:51:48.953Z,24.70
2022-10-11T18:53:59.616Z,24.60
2022-10-11T18:56:08.218Z,24.60
2022-10-11T18:58:15.313Z,24.60
2022-10-11T19:00:40.051Z,24.60
2022-10-11T19:02:47.341Z,24.60
2022-10-11T19:04:55.390Z,24.50
2022-10-11T19:07:02.265Z,24.50
2022-10-11T19:09:12.930Z,24.50
2022-10-11T19:11:23.181Z,24.40
2022-10-11T19:13:30.059Z,24.40
2022-10-11T19:15:38.941Z,24.40
2022-10-11T19:17:45.750Z,24.30
2022-10-11T19:19:53.085Z,24.30
2022-10-11T19:22:00.267Z,24.30
2022-10-11T19:24:07.912Z,24.20
2022-10-11T19:26:18.782Z,24.30
2022-10-11T19:28:26.009Z,24.20
2022-10-11T19:30:34.678Z,24.20
2022-10-11T19:32:41.807Z,24.20
2022-10-11T19:34:48.835Z,24.30
2022-10-11T19:36:56.017Z,24.20
2022-10-11T19:39:02.791Z,24.10
2022-10-11T19:41:10.077Z,24.10
2022-10-11T19:43:18.791Z,24.10
2022-10-11T19:45:25.871Z,24.10
2022-10-11T19:47:33.148Z,24.10
2022-10-11T19:49:40.797Z,24.10
2022-10-11T19:51:47.673Z,24.10
2022-10-11T19:53:59.720Z,24.00
2022-10-11T19:56:06.692Z,24.10
2022-10-11T19:58:13.619Z,24.00
2022-10-11T20:00:22.799Z,24.00
2022-10-11T20:02:30.031Z,24.00
2022-10-11T20:04:53.195Z,24.00
2022-10-11T20:07:00.268Z,24.00
2022-10-11T20:11:34.649Z,23.90
2022-10-11T20:13:42.344Z,23.90
2022-10-11T20:15:51.264Z,23.90
2022-10-11T20:17:58.292Z,23.90
2022-10-11T20:20:05.319Z,23.90
2022-10-11T20:22:12.091Z,23.90
2022-10-11T20:24:19.224Z,23.90
2022-10-11T20:26:26.967Z,23.90
2022-10-11T20:28:35.565Z,23.90
2022-10-11T20:30:46.198Z,23.80
2022-10-11T20:32:54.913Z,23.80
2022-10-11T20:35:01.788Z,23.80
2022-10-11T20:37:08.712Z,23.70
2022-10-11T20:39:16.304Z,23.70
2022-10-11T20:41:25.174Z,23.70
2022-10-11T20:43:32.048Z,23.70
2022-10-11T20:45:39.078Z,23.70
2022-10-11T20:47:45.798Z,23.70
2022-10-11T20:49:54.875Z,23.70
2022-10-11T20:52:02.005Z,23.70
2022-10-11T20:54:09.594Z,23.70
2022-10-11T20:56:18.579Z,23.70
2022-10-11T20:58:25.955Z,23.70
2022-10-11T21:00:32.626Z,23.60
2022-10-11T21:02:39.806Z,23.60
2022-10-11T21:04:46.834Z,23.60
2022-10-11T21:06:55.451Z,23.50
2022-10-11T21:09:02.733Z,23.50
2022-10-11T21:11:10.430Z,23.50
2022-10-11T21:13:17.353Z,23.50
2022-10-11T21:15:24.432Z,23.50
2022-10-11T21:17:31.357Z,23.50
2022-10-11T21:19:38.234Z,23.40
2022-10-11T21:21:49.516Z,23.50
2022-10-11T21:24:02.134Z,23.50
2022-10-11T21:26:10.736Z,23.50
2022-10-11T21:28:17.887Z,23.40
2022-10-11T21:30:24.791Z,23.40
2022-10-11T21:32:32.206Z,23.40
2022-10-11T21:34:39.258Z,23.30
2022-10-11T21:36:46.181Z,23.30
2022-10-11T21:38:54.255Z,23.30
2022-10-11T21:41:04.949Z,23.30
2022-10-11T21:43:11.822Z,23.20
2022-10-11T21:45:18.697Z,23.30
2022-10-11T21:47:25.417Z,23.30
2022-10-11T21:49:33.059Z,23.30
2022-10-11T21:51:40.036Z,23.30
2022-10-11T21:53:46.910Z,23.30
2022-10-11T21:55:59.111Z,23.20
2022-10-11T21:58:09.267Z,23.20
2022-10-11T22:00:17.109Z,23.20
2022-10-11T22:02:23.880Z,23.20
2022-10-11T22:04:31.011Z,23.20
2022-10-11T22:06:38.296Z,23.10
2022-10-11T22:08:45.476Z,23.10
2022-10-11T22:10:57.985Z,23.10
2022-10-11T22:13:06.495Z,23.10
2022-10-11T22:15:14.192Z,23.10
2022-10-11T22:17:21.012Z,23.10
2022-10-11T22:19:28.091Z,23.00
2022-10-11T22:21:34.967Z,23.00
2022-10-11T22:23:41.943Z,23.00
2022-10-11T22:25:49.278Z,23.10
2022-10-11T22:27:56.205Z,23.00
2022-10-11T22:30:04.819Z,23.00
2022-10-11T22:32:11.693Z,23.10
2022-10-11T22:34:18.722Z,23.00
2022-10-11T22:36:26.620Z,23.00
2022-10-11T22:38:33.699Z,23.00
2022-10-11T22:40:44.054Z,23.00
2022-10-11T22:42:51.340Z,22.90
2022-10-11T22:44:58.213Z,22.90
2022-10-11T22:47:07.033Z,22.90
2022-10-11T22:49:14.166Z,22.90
2022-10-11T22:51:20.938Z,22.90
2022-10-11T22:53:28.275Z,22.90
2022-10-11T22:55:35.200Z,22.90
2022-10-11T22:57:42.123Z,22.90
2022-10-11T22:59:48.894Z,23.00
2022-10-11T23:01:56.026Z,22.90
2022-10-11T23:04:04.517Z,22.90
2022-10-11T23:06:11.565Z,22.90
2022-10-11T23:08:18.337Z,22.90
2022-10-11T23:10:25.118Z,22.90
2022-10-11T23:12:31.935Z,22.90
2022-10-11T23:14:39.069Z,22.80
2022-10-11T23:16:46.040Z,22.80
2022-10-11T23:18:56.141Z,22.80
2022-10-11T23:21:06.292Z,22.70
2022-10-11T23:23:14.599Z,22.70
2022-10-11T23:25:21.780Z,22.70
2022-10-11T23:27:28.760Z,22.70
2022-10-11T23:29:36.450Z,22.70
2022-10-11T23:31:43.222Z,22.80
2022-10-11T23:33:51.023Z,22.80
2022-10-11T23:35:57.893Z,22.80
2022-10-11T23:38:06.614Z,22.70
2022-10-11T23:40:14.048Z,22.70
2022-10-11T23:42:20.923Z,22.70
2022-10-11T23:44:27.746Z,22.70
2022-10-11T23:46:34.883Z,22.70
2022-10-11T23:48:41.495Z,22.70
2022-10-11T23:50:48.934Z,22.70
2022-10-11T23:52:55.653Z,22.70
2022-10-11T23:55:04.221Z,22.70
2022-10-11T23:57:11.142Z,22.70
2022-10-11T23:59:18.120Z,22.80
